sensor_id;sensor_type;location;lat;lon;timestamp;pressure;altitude;pressure_sealevel;temperature;humidity
66398;BME280;54877;51.504;3.894;2023-08-12T00:02:11;101745.59;;;24.44;63.83
66398;BME280;54877;51.504;3.894;2023-08-12T00:04:36;101744.59;;;24.45;63.93
66398;BME280;54877;51.504;3.894;2023-08-12T00:07:02;101742.72;;;24.45;64.09
66398;BME280;54877;51.504;3.894;2023-08-12T00:09:27;101738.03;;;24.47;63.95
66398;BME280;54877;51.504;3.894;2023-08-12T00:11:53;101743.59;;;24.46;63.86
66398;BME280;54877;51.504;3.894;2023-08-12T00:14:18;101735.59;;;24.44;64.17
66398;BME280;54877;51.504;3.894;2023-08-12T00:16:44;101726.66;;;24.44;64.06
66398;BME280;54877;51.504;3.894;2023-08-12T00:19:09;101736.63;;;24.43;64.01
66398;BME280;54877;51.504;3.894;2023-08-12T00:21:34;101733.91;;;24.43;63.92
66398;BME280;54877;51.504;3.894;2023-08-12T00:24:00;101726.78;;;24.42;63.96
66398;BME280;54877;51.504;3.894;2023-08-12T00:26:25;101736.03;;;24.40;64.01
66398;BME280;54877;51.504;3.894;2023-08-12T00:28:52;101730.47;;;24.41;64.48
66398;BME280;54877;51.504;3.894;2023-08-12T00:31:17;101729.75;;;24.39;64.37
66398;BME280;54877;51.504;3.894;2023-08-12T00:33:43;101724.50;;;24.38;64.53
66398;BME280;54877;51.504;3.894;2023-08-12T00:36:08;101729.94;;;24.38;64.42
66398;BME280;54877;51.504;3.894;2023-08-12T00:38:33;101713.09;;;24.34;64.67
66398;BME280;54877;51.504;3.894;2023-08-12T00:40:59;101714.09;;;24.33;64.65
66398;BME280;54877;51.504;3.894;2023-08-12T00:43:24;101717.94;;;24.31;65.02
66398;BME280;54877;51.504;3.894;2023-08-12T00:45:49;101715.13;;;24.32;64.52
66398;BME280;54877;51.504;3.894;2023-08-12T00:48:15;101717.81;;;24.32;64.81
66398;BME280;54877;51.504;3.894;2023-08-12T00:50:43;101717.09;;;24.30;64.55
66398;BME280;54877;51.504;3.894;2023-08-12T00:53:09;101715.25;;;24.31;64.95
66398;BME280;54877;51.504;3.894;2023-08-12T00:55:37;101709.97;;;24.29;64.82
66398;BME280;54877;51.504;3.894;2023-08-12T00:58:02;101710.84;;;24.30;65.12
66398;BME280;54877;51.504;3.894;2023-08-12T01:00:28;101709.97;;;24.29;64.79
66398;BME280;54877;51.504;3.894;2023-08-12T01:02:55;101708.84;;;24.13;65.72
66398;BME280;54877;51.504;3.894;2023-08-12T01:05:21;101698.44;;;24.18;65.44
66398;BME280;54877;51.504;3.894;2023-08-12T01:07:46;101701.97;;;24.09;65.71
66398;BME280;54877;51.504;3.894;2023-08-12T01:10:13;101704.31;;;24.13;65.81
66398;BME280;54877;51.504;3.894;2023-08-12T01:12:52;101698.59;;;24.16;65.57
66398;BME280;54877;51.504;3.894;2023-08-12T01:15:24;101694.31;;;24.14;65.84
66398;BME280;54877;51.504;3.894;2023-08-12T01:17:51;101698.44;;;24.18;65.62
66398;BME280;54877;51.504;3.894;2023-08-12T01:20:20;101693.31;;;24.24;65.56
66398;BME280;54877;51.504;3.894;2023-08-12T01:22:53;101690.78;;;24.13;66.11
66398;BME280;54877;51.504;3.894;2023-08-12T01:25:34;101680.94;;;24.12;66.59
66398;BME280;54877;51.504;3.894;2023-08-12T01:28:00;101673.22;;;24.17;66.35
66398;BME280;54877;51.504;3.894;2023-08-12T01:30:25;101666.56;;;24.21;66.54
66398;BME280;54877;51.504;3.894;2023-08-12T01:32:55;101676.22;;;24.24;66.50
66398;BME280;54877;51.504;3.894;2023-08-12T01:35:30;101674.81;;;24.10;67.66
66398;BME280;54877;51.504;3.894;2023-08-12T01:38:01;101665.28;;;24.16;67.48
66398;BME280;54877;51.504;3.894;2023-08-12T01:40:29;101664.13;;;24.18;67.30
66398;BME280;54877;51.504;3.894;2023-08-12T01:42:56;101673.94;;;24.19;67.77
66398;BME280;54877;51.504;3.894;2023-08-12T01:45:22;101664.53;;;24.23;67.34
66398;BME280;54877;51.504;3.894;2023-08-12T01:47:48;101655.28;;;24.26;67.25
66398;BME280;54877;51.504;3.894;2023-08-12T01:50:15;101660.84;;;24.24;67.29
66398;BME280;54877;51.504;3.894;2023-08-12T01:52:41;101661.84;;;24.23;67.76
66398;BME280;54877;51.504;3.894;2023-08-12T01:55:07;101664.13;;;24.18;67.58
66398;BME280;54877;51.504;3.894;2023-08-12T01:57:32;101655.31;;;24.16;67.74
66398;BME280;54877;51.504;3.894;2023-08-12T01:59:58;101655.31;;;24.16;67.74
66398;BME280;54877;51.504;3.894;2023-08-12T02:02:23;101660.00;;;24.14;67.74
66398;BME280;54877;51.504;3.894;2023-08-12T02:04:49;101659.28;;;24.12;68.27
66398;BME280;54877;51.504;3.894;2023-08-12T02:07:14;101649.00;;;24.06;68.35
66398;BME280;54877;51.504;3.894;2023-08-12T02:09:40;101642.34;;;24.10;68.49
66398;BME280;54877;51.504;3.894;2023-08-12T02:12:05;101642.19;;;24.12;67.98
66398;BME280;54877;51.504;3.894;2023-08-12T02:14:31;101639.19;;;24.15;67.95
66398;BME280;54877;51.504;3.894;2023-08-12T02:16:56;101632.66;;;24.17;67.95
66398;BME280;54877;51.504;3.894;2023-08-12T02:19:21;101640.06;;;24.15;68.02
66398;BME280;54877;51.504;3.894;2023-08-12T02:21:47;101628.25;;;24.16;68.11
66398;BME280;54877;51.504;3.894;2023-08-12T02:24:12;101624.69;;;24.16;68.29
66398;BME280;54877;51.504;3.894;2023-08-12T02:26:38;101619.97;;;24.18;67.81
66398;BME280;54877;51.504;3.894;2023-08-12T02:29:03;101623.66;;;24.17;67.81
66398;BME280;54877;51.504;3.894;2023-08-12T02:31:29;101622.84;;;24.16;68.04
66398;BME280;54877;51.504;3.894;2023-08-12T02:33:54;101616.00;;;24.12;68.01
66398;BME280;54877;51.504;3.894;2023-08-12T02:36:20;101614.56;;;24.18;68.19
66398;BME280;54877;51.504;3.894;2023-08-12T02:38:45;101613.88;;;24.16;67.83
66398;BME280;54877;51.504;3.894;2023-08-12T02:41:10;101605.88;;;24.14;68.16
66398;BME280;54877;51.504;3.894;2023-08-12T02:43:36;101602.31;;;24.14;68.03
66398;BME280;54877;51.504;3.894;2023-08-12T02:46:01;101611.56;;;24.11;68.03
66398;BME280;54877;51.504;3.894;2023-08-12T02:48:27;101611.56;;;24.11;67.83
66398;BME280;54877;51.504;3.894;2023-08-12T02:50:52;101608.56;;;24.05;68.15
66398;BME280;54877;51.504;3.894;2023-08-12T02:53:17;101608.28;;;24.08;68.06
66398;BME280;54877;51.504;3.894;2023-08-12T02:55:44;101606.28;;;24.00;68.27
66398;BME280;54877;51.504;3.894;2023-08-12T02:58:10;101604.31;;;24.02;68.15
66398;BME280;54877;51.504;3.894;2023-08-12T03:00:36;101612.28;;;24.04;68.24
66398;BME280;54877;51.504;3.894;2023-08-12T03:03:01;101606.72;;;24.05;67.99
66398;BME280;54877;51.504;3.894;2023-08-12T03:05:26;101606.84;;;24.04;68.29
66398;BME280;54877;51.504;3.894;2023-08-12T03:07:52;101599.75;;;24.03;67.88
66398;BME280;54877;51.504;3.894;2023-08-12T03:10:17;101594.88;;;24.06;67.87
66398;BME280;54877;51.504;3.894;2023-08-12T03:12:42;101593.22;;;24.05;68.03
66398;BME280;54877;51.504;3.894;2023-08-12T03:15:08;101594.03;;;24.06;67.86
66398;BME280;54877;51.504;3.894;2023-08-12T03:17:34;101593.50;;;24.02;68.31
66398;BME280;54877;51.504;3.894;2023-08-12T03:19:59;101584.34;;;24.03;68.25
66398;BME280;54877;51.504;3.894;2023-08-12T03:22:25;101579.22;;;24.00;68.43
66398;BME280;54877;51.504;3.894;2023-08-12T03:24:52;101571.13;;;24.00;68.35
66398;BME280;54877;51.504;3.894;2023-08-12T03:27:18;101569.72;;;23.96;68.21
66398;BME280;54877;51.504;3.894;2023-08-12T03:29:43;101565.56;;;23.92;68.76
66398;BME280;54877;51.504;3.894;2023-08-12T03:32:08;101567.03;;;23.77;69.12
66398;BME280;54877;51.504;3.894;2023-08-12T03:34:34;101562.19;;;23.80;68.79
66398;BME280;54877;51.504;3.894;2023-08-12T03:36:59;101559.50;;;23.71;69.24
66398;BME280;54877;51.504;3.894;2023-08-12T03:39:24;101553.38;;;23.69;69.58
66398;BME280;54877;51.504;3.894;2023-08-12T03:41:50;101549.94;;;23.67;69.29
66398;BME280;54877;51.504;3.894;2023-08-12T03:44:16;101548.25;;;23.66;69.52
66398;BME280;54877;51.504;3.894;2023-08-12T03:46:41;101541.00;;;23.66;69.01
66398;BME280;54877;51.504;3.894;2023-08-12T03:49:07;101538.88;;;23.60;69.09
66398;BME280;54877;51.504;3.894;2023-08-12T03:51:32;101530.06;;;23.58;69.52
66398;BME280;54877;51.504;3.894;2023-08-12T03:53:58;101528.47;;;23.56;69.59
66398;BME280;54877;51.504;3.894;2023-08-12T03:56:24;101526.34;;;23.59;69.48
66398;BME280;54877;51.504;3.894;2023-08-12T03:58:49;101521.63;;;23.61;69.42
66398;BME280;54877;51.504;3.894;2023-08-12T04:01:15;101520.66;;;23.62;69.33
66398;BME280;54877;51.504;3.894;2023-08-12T04:03:40;101518.53;;;23.66;69.50
66398;BME280;54877;51.504;3.894;2023-08-12T04:06:06;101526.34;;;23.69;69.53
66398;BME280;54877;51.504;3.894;2023-08-12T04:08:31;101520.94;;;23.69;69.37
66398;BME280;54877;51.504;3.894;2023-08-12T04:10:57;101527.03;;;23.71;69.14
66398;BME280;54877;51.504;3.894;2023-08-12T04:13:22;101535.72;;;23.74;69.10
66398;BME280;54877;51.504;3.894;2023-08-12T04:15:48;101535.00;;;23.72;69.26
66398;BME280;54877;51.504;3.894;2023-08-12T04:18:15;101541.44;;;23.71;69.35
66398;BME280;54877;51.504;3.894;2023-08-12T04:20:40;101537.88;;;23.71;69.21
66398;BME280;54877;51.504;3.894;2023-08-12T04:23:06;101533.72;;;23.67;69.90
66398;BME280;54877;51.504;3.894;2023-08-12T04:25:31;101542.16;;;23.64;69.51
66398;BME280;54877;51.504;3.894;2023-08-12T04:27:57;101533.59;;;23.59;70.36
66398;BME280;54877;51.504;3.894;2023-08-12T04:30:23;101539.00;;;23.59;70.16
66398;BME280;54877;51.504;3.894;2023-08-12T04:32:48;101542.84;;;23.56;70.13
66398;BME280;54877;51.504;3.894;2023-08-12T04:35:14;101545.69;;;23.55;70.42
66398;BME280;54877;51.504;3.894;2023-08-12T04:37:39;101539.88;;;23.50;70.69
66398;BME280;54877;51.504;3.894;2023-08-12T04:40:05;101539.72;;;23.51;70.50
66398;BME280;54877;51.504;3.894;2023-08-12T04:42:32;101523.78;;;23.48;70.77
66398;BME280;54877;51.504;3.894;2023-08-12T04:44:58;101522.22;;;23.46;70.74
66398;BME280;54877;51.504;3.894;2023-08-12T04:47:23;101512.97;;;23.48;70.61
66398;BME280;54877;51.504;3.894;2023-08-12T04:49:48;101511.56;;;23.44;70.60
66398;BME280;54877;51.504;3.894;2023-08-12T04:52:14;101499.63;;;23.47;70.61
66398;BME280;54877;51.504;3.894;2023-08-12T04:54:39;101498.59;;;23.48;70.69
66398;BME280;54877;51.504;3.894;2023-08-12T04:57:04;101503.88;;;23.49;70.70
66398;BME280;54877;51.504;3.894;2023-08-12T04:59:30;101495.78;;;23.49;70.83
66398;BME280;54877;51.504;3.894;2023-08-12T05:01:56;101495.63;;;23.51;70.45
66398;BME280;54877;51.504;3.894;2023-08-12T05:04:21;101499.75;;;23.55;70.28
66398;BME280;54877;51.504;3.894;2023-08-12T05:06:46;101498.72;;;23.56;70.23
66398;BME280;54877;51.504;3.894;2023-08-12T05:09:12;101497.63;;;23.58;70.15
66398;BME280;54877;51.504;3.894;2023-08-12T05:11:37;101494.75;;;23.60;70.21
66398;BME280;54877;51.504;3.894;2023-08-12T05:14:03;101494.06;;;23.58;70.32
66398;BME280;54877;51.504;3.894;2023-08-12T05:16:28;101497.63;;;23.58;70.46
66398;BME280;54877;51.504;3.894;2023-08-12T05:18:54;101502.88;;;23.60;70.19
66398;BME280;54877;51.504;3.894;2023-08-12T05:21:20;101496.75;;;23.58;70.48
66398;BME280;54877;51.504;3.894;2023-08-12T05:23:45;101502.72;;;23.61;70.08
66398;BME280;54877;51.504;3.894;2023-08-12T05:26:10;101503.56;;;23.62;70.26
66398;BME280;54877;51.504;3.894;2023-08-12T05:28:36;101494.47;;;23.63;70.05
66398;BME280;54877;51.504;3.894;2023-08-12T05:31:01;101496.47;;;23.61;70.07
66398;BME280;54877;51.504;3.894;2023-08-12T05:33:27;101504.72;;;23.59;70.24
66398;BME280;54877;51.504;3.894;2023-08-12T05:35:53;101505.56;;;23.60;70.38
66398;BME280;54877;51.504;3.894;2023-08-12T05:38:18;101506.72;;;23.57;70.58
66398;BME280;54877;51.504;3.894;2023-08-12T05:40:43;101501.03;;;23.51;70.74
66398;BME280;54877;51.504;3.894;2023-08-12T05:43:09;101501.31;;;23.48;71.18
66398;BME280;54877;51.504;3.894;2023-08-12T05:45:34;101511.13;;;23.49;71.21
66398;BME280;54877;51.504;3.894;2023-08-12T05:47:59;101510.13;;;23.50;70.81
66398;BME280;54877;51.504;3.894;2023-08-12T05:50:25;101519.25;;;23.49;70.95
66398;BME280;54877;51.504;3.894;2023-08-12T05:52:50;101516.69;;;23.47;71.33
66398;BME280;54877;51.504;3.894;2023-08-12T05:55:16;101522.63;;;23.51;71.11
66398;BME280;54877;51.504;3.894;2023-08-12T05:57:41;101525.72;;;23.17;71.98
66398;BME280;54877;51.504;3.894;2023-08-12T06:00:07;101536.34;;;22.90;69.88
66398;BME280;54877;51.504;3.894;2023-08-12T06:02:32;101535.47;;;22.80;69.68
66398;BME280;54877;51.504;3.894;2023-08-12T06:04:58;101538.19;;;22.59;69.63
66398;BME280;54877;51.504;3.894;2023-08-12T06:07:23;101542.09;;;22.36;69.97
66398;BME280;54877;51.504;3.894;2023-08-12T06:09:49;101541.94;;;22.38;70.22
66398;BME280;54877;51.504;3.894;2023-08-12T06:12:15;101538.47;;;22.26;70.14
66398;BME280;54877;51.504;3.894;2023-08-12T06:14:40;101552.91;;;22.15;70.66
66398;BME280;54877;51.504;3.894;2023-08-12T06:17:06;101555.63;;;21.95;70.22
66398;BME280;54877;51.504;3.894;2023-08-12T06:19:32;101555.78;;;21.82;69.12
66398;BME280;54877;51.504;3.894;2023-08-12T06:21:57;101554.59;;;21.75;68.38
66398;BME280;54877;51.504;3.894;2023-08-12T06:24:23;101562.41;;;21.57;68.79
66398;BME280;54877;51.504;3.894;2023-08-12T06:26:48;101565.53;;;21.42;68.92
66398;BME280;54877;51.504;3.894;2023-08-12T06:29:13;101567.00;;;21.35;69.63
66398;BME280;54877;51.504;3.894;2023-08-12T06:31:39;101560.41;;;21.39;69.38
66398;BME280;54877;51.504;3.894;2023-08-12T06:34:04;101556.38;;;21.33;69.11
66398;BME280;54877;51.504;3.894;2023-08-12T06:36:30;101552.59;;;21.25;68.55
66398;BME280;54877;51.504;3.894;2023-08-12T06:38:55;101550.34;;;21.09;67.79
66398;BME280;54877;51.504;3.894;2023-08-12T06:41:21;101547.63;;;21.20;67.77
66398;BME280;54877;51.504;3.894;2023-08-12T06:43:46;101546.13;;;21.16;67.77
66398;BME280;54877;51.504;3.894;2023-08-12T06:46:11;101542.81;;;21.24;68.45
66398;BME280;54877;51.504;3.894;2023-08-12T06:48:37;101547.56;;;21.31;68.24
66398;BME280;54877;51.504;3.894;2023-08-12T06:51:02;101541.03;;;21.45;68.55
66398;BME280;54877;51.504;3.894;2023-08-12T06:53:35;101544.03;;;21.51;68.54
66398;BME280;54877;51.504;3.894;2023-08-12T06:56:01;101555.78;;;21.61;68.42
66398;BME280;54877;51.504;3.894;2023-08-12T06:58:27;101563.00;;;21.61;68.72
66398;BME280;54877;51.504;3.894;2023-08-12T07:00:52;101556.84;;;21.70;68.63
66398;BME280;54877;51.504;3.894;2023-08-12T07:03:18;101558.00;;;21.77;68.44
66398;BME280;54877;51.504;3.894;2023-08-12T07:05:43;101560.72;;;21.77;67.56
66398;BME280;54877;51.504;3.894;2023-08-12T07:08:09;101572.22;;;21.79;67.95
66398;BME280;54877;51.504;3.894;2023-08-12T07:10:37;101571.94;;;21.82;68.00
66398;BME280;54877;51.504;3.894;2023-08-12T07:13:03;101581.03;;;21.81;67.91
66398;BME280;54877;51.504;3.894;2023-08-12T07:15:29;101571.53;;;21.66;68.19
66398;BME280;54877;51.504;3.894;2023-08-12T07:17:54;101582.69;;;21.73;68.30
66398;BME280;54877;51.504;3.894;2023-08-12T07:20:19;101565.66;;;21.72;68.22
66398;BME280;54877;51.504;3.894;2023-08-12T07:22:45;101554.88;;;21.72;68.38
66398;BME280;54877;51.504;3.894;2023-08-12T07:25:10;101552.22;;;21.82;68.28
66398;BME280;54877;51.504;3.894;2023-08-12T07:27:36;101553.56;;;21.87;67.85
66398;BME280;54877;51.504;3.894;2023-08-12T07:30:01;101561.88;;;21.95;68.15
66398;BME280;54877;51.504;3.894;2023-08-12T07:32:26;101564.78;;;22.03;67.81
66398;BME280;54877;51.504;3.894;2023-08-12T07:34:52;101559.41;;;22.13;67.74
66398;BME280;54877;51.504;3.894;2023-08-12T07:37:17;101548.81;;;22.21;67.49
66398;BME280;54877;51.504;3.894;2023-08-12T07:39:42;101550.88;;;22.29;67.21
66398;BME280;54877;51.504;3.894;2023-08-12T07:42:08;101565.25;;;22.39;67.44
66398;BME280;54877;51.504;3.894;2023-08-12T07:44:33;101569.25;;;22.44;67.28
66398;BME280;54877;51.504;3.894;2023-08-12T07:46:59;101566.16;;;22.49;66.99
66398;BME280;54877;51.504;3.894;2023-08-12T07:49:24;101577.84;;;22.59;67.46
66398;BME280;54877;51.504;3.894;2023-08-12T07:51:49;101574.34;;;22.68;68.01
66398;BME280;54877;51.504;3.894;2023-08-12T07:54:15;101583.19;;;22.70;67.85
66398;BME280;54877;51.504;3.894;2023-08-12T07:56:40;101579.97;;;22.86;67.78
66398;BME280;54877;51.504;3.894;2023-08-12T07:59:06;101568.84;;;22.79;68.38
66398;BME280;54877;51.504;3.894;2023-08-12T08:01:31;101576.47;;;23.04;68.25
66398;BME280;54877;51.504;3.894;2023-08-12T08:03:57;101579.47;;;23.20;67.85
66398;BME280;54877;51.504;3.894;2023-08-12T08:06:22;101574.38;;;23.36;67.28
66398;BME280;54877;51.504;3.894;2023-08-12T08:08:48;101573.56;;;23.46;66.59
66398;BME280;54877;51.504;3.894;2023-08-12T08:11:14;101584.66;;;23.62;66.34
66398;BME280;54877;51.504;3.894;2023-08-12T08:13:39;101568.44;;;23.81;65.27
66398;BME280;54877;51.504;3.894;2023-08-12T08:16:04;101563.63;;;23.75;64.59
66398;BME280;54877;51.504;3.894;2023-08-12T08:18:30;101562.19;;;23.90;64.61
66398;BME280;54877;51.504;3.894;2023-08-12T08:20:56;101558.50;;;23.72;62.55
66398;BME280;54877;51.504;3.894;2023-08-12T08:23:21;101560.63;;;23.78;62.46
66398;BME280;54877;51.504;3.894;2023-08-12T08:25:46;101575.00;;;23.88;63.03
66398;BME280;54877;51.504;3.894;2023-08-12T08:28:12;101570.28;;;23.90;63.37
66398;BME280;54877;51.504;3.894;2023-08-12T08:30:37;101570.84;;;24.03;63.39
66398;BME280;54877;51.504;3.894;2023-08-12T08:33:03;101577.53;;;24.18;62.77
66398;BME280;54877;51.504;3.894;2023-08-12T08:35:28;101581.34;;;24.25;61.69
66398;BME280;54877;51.504;3.894;2023-08-12T08:37:53;101587.22;;;24.11;62.39
66398;BME280;54877;51.504;3.894;2023-08-12T08:40:19;101594.47;;;24.20;62.50
66398;BME280;54877;51.504;3.894;2023-08-12T08:42:44;101598.50;;;24.16;61.77
66398;BME280;54877;51.504;3.894;2023-08-12T08:45:16;101609.31;;;23.97;62.54
66398;BME280;54877;51.504;3.894;2023-08-12T08:47:42;101623.41;;;23.91;61.61
66398;BME280;54877;51.504;3.894;2023-08-12T08:50:10;101619.69;;;23.92;61.94
66398;BME280;54877;51.504;3.894;2023-08-12T08:52:36;101608.28;;;23.98;62.54
66398;BME280;54877;51.504;3.894;2023-08-12T08:55:03;101611.13;;;24.06;62.33
66398;BME280;54877;51.504;3.894;2023-08-12T08:57:29;101611.16;;;24.16;62.67
66398;BME280;54877;51.504;3.894;2023-08-12T08:59:55;101611.28;;;24.24;62.77
66398;BME280;54877;51.504;3.894;2023-08-12T09:02:20;101616.16;;;24.11;61.80
66398;BME280;54877;51.504;3.894;2023-08-12T09:04:46;101612.31;;;24.13;61.48
66398;BME280;54877;51.504;3.894;2023-08-12T09:07:12;101615.41;;;23.99;61.25
66398;BME280;54877;51.504;3.894;2023-08-12T09:09:44;101623.66;;;24.07;61.35
66398;BME280;54877;51.504;3.894;2023-08-12T09:12:13;101623.66;;;24.26;61.17
66398;BME280;54877;51.504;3.894;2023-08-12T09:14:41;101622.53;;;24.29;61.30
66398;BME280;54877;51.504;3.894;2023-08-12T09:17:07;101621.25;;;24.23;60.47
66398;BME280;54877;51.504;3.894;2023-08-12T09:19:32;101621.81;;;24.17;60.03
66398;BME280;54877;51.504;3.894;2023-08-12T09:21:58;101616.00;;;24.22;60.17
66398;BME280;54877;51.504;3.894;2023-08-12T09:24:27;101621.13;;;23.96;60.16
66398;BME280;54877;51.504;3.894;2023-08-12T09:26:55;101636.78;;;24.02;60.74
66398;BME280;54877;51.504;3.894;2023-08-12T09:29:30;101640.63;;;23.80;61.03
66398;BME280;54877;51.504;3.894;2023-08-12T09:34:48;101644.00;;;23.73;60.68
66398;BME280;54877;51.504;3.894;2023-08-12T09:37:16;101644.00;;;23.73;60.62
66398;BME280;54877;51.504;3.894;2023-08-12T09:39:42;101649.31;;;23.74;60.91
66398;BME280;54877;51.504;3.894;2023-08-12T09:42:09;101646.16;;;23.79;60.98
66398;BME280;54877;51.504;3.894;2023-08-12T09:44:35;101647.31;;;24.05;60.81
66398;BME280;54877;51.504;3.894;2023-08-12T09:47:04;101641.31;;;24.30;60.12
66398;BME280;54877;51.504;3.894;2023-08-12T09:49:30;101649.41;;;24.49;58.66
66398;BME280;54877;51.504;3.894;2023-08-12T09:51:56;101644.25;;;24.56;56.87
66398;BME280;54877;51.504;3.894;2023-08-12T09:54:22;101635.66;;;24.70;56.62
66398;BME280;54877;51.504;3.894;2023-08-12T09:56:52;101641.47;;;24.85;56.73
66398;BME280;54877;51.504;3.894;2023-08-12T09:59:21;101650.00;;;24.90;56.28
66398;BME280;54877;51.504;3.894;2023-08-12T10:01:49;101635.69;;;25.07;55.45
66398;BME280;54877;51.504;3.894;2023-08-12T10:04:17;101633.66;;;25.09;55.90
66398;BME280;54877;51.504;3.894;2023-08-12T10:06:43;101636.88;;;25.22;54.99
66398;BME280;54877;51.504;3.894;2023-08-12T10:09:09;101632.94;;;25.34;54.58
66398;BME280;54877;51.504;3.894;2023-08-12T10:11:36;101626.50;;;25.35;54.13
66398;BME280;54877;51.504;3.894;2023-08-12T10:14:02;101632.09;;;25.34;53.69
66398;BME280;54877;51.504;3.894;2023-08-12T10:16:29;101629.88;;;25.20;54.83
66398;BME280;54877;51.504;3.894;2023-08-12T10:18:55;101630.34;;;25.15;54.64
66398;BME280;54877;51.504;3.894;2023-08-12T10:21:23;101633.56;;;25.28;54.46
66398;BME280;54877;51.504;3.894;2023-08-12T10:23:50;101619.59;;;25.23;54.22
66398;BME280;54877;51.504;3.894;2023-08-12T10:26:15;101627.13;;;25.29;54.14
66398;BME280;54877;51.504;3.894;2023-08-12T10:28:42;101631.34;;;25.14;52.24
66398;BME280;54877;51.504;3.894;2023-08-12T10:31:08;101629.28;;;25.26;53.77
66398;BME280;54877;51.504;3.894;2023-08-12T10:33:37;101620.63;;;25.40;54.10
66398;BME280;54877;51.504;3.894;2023-08-12T10:36:03;101622.38;;;25.58;54.18
66398;BME280;54877;51.504;3.894;2023-08-12T10:38:28;101621.59;;;25.66;51.27
66398;BME280;54877;51.504;3.894;2023-08-12T10:41:09;101622.72;;;25.73;52.01
66398;BME280;54877;51.504;3.894;2023-08-12T10:46:33;101619.13;;;25.55;50.97
66398;BME280;54877;51.504;3.894;2023-08-12T10:49:05;101621.00;;;25.72;51.64
66398;BME280;54877;51.504;3.894;2023-08-12T10:51:45;101615.94;;;25.95;52.12
66398;BME280;54877;51.504;3.894;2023-08-12T11:05:02;101624.75;;;25.71;50.50
66398;BME280;54877;51.504;3.894;2023-08-12T11:10:04;101617.59;;;25.70;51.75
66398;BME280;54877;51.504;3.894;2023-08-12T11:12:41;101618.44;;;25.71;51.21
66398;BME280;54877;51.504;3.894;2023-08-12T11:15:12;101623.00;;;25.88;52.59
66398;BME280;54877;51.504;3.894;2023-08-12T11:17:38;101628.97;;;26.09;52.38
66398;BME280;54877;51.504;3.894;2023-08-12T11:20:05;101621.13;;;26.06;51.89
66398;BME280;54877;51.504;3.894;2023-08-12T11:22:33;101626.81;;;25.95;51.07
66398;BME280;54877;51.504;3.894;2023-08-12T11:25:02;101615.84;;;26.22;51.96
66398;BME280;54877;51.504;3.894;2023-08-12T11:27:34;101615.63;;;26.15;50.95
66398;BME280;54877;51.504;3.894;2023-08-12T11:30:08;101620.81;;;26.09;51.72
66398;BME280;54877;51.504;3.894;2023-08-12T11:32:35;101622.25;;;25.95;51.38
66398;BME280;54877;51.504;3.894;2023-08-12T11:35:03;101623.41;;;25.93;51.91
66398;BME280;54877;51.504;3.894;2023-08-12T11:37:30;101613.63;;;26.00;51.78
66398;BME280;54877;51.504;3.894;2023-08-12T11:39:56;101616.38;;;26.08;52.37
66398;BME280;54877;51.504;3.894;2023-08-12T11:42:21;101609.03;;;26.00;52.14
66398;BME280;54877;51.504;3.894;2023-08-12T11:44:47;101619.97;;;25.91;52.74
66398;BME280;54877;51.504;3.894;2023-08-12T11:47:12;101620.22;;;25.80;52.86
66398;BME280;54877;51.504;3.894;2023-08-12T11:49:37;101611.50;;;26.11;53.22
66398;BME280;54877;51.504;3.894;2023-08-12T11:52:03;101616.75;;;26.13;53.23
66398;BME280;54877;51.504;3.894;2023-08-12T11:54:28;101621.34;;;26.30;52.57
66398;BME280;54877;51.504;3.894;2023-08-12T11:56:54;101623.91;;;26.32;52.58
66398;BME280;54877;51.504;3.894;2023-08-12T11:59:22;101625.56;;;26.50;52.70
66398;BME280;54877;51.504;3.894;2023-08-12T12:01:51;101617.13;;;26.61;52.22
66398;BME280;54877;51.504;3.894;2023-08-12T12:04:17;101618.38;;;26.41;52.03
66398;BME280;54877;51.504;3.894;2023-08-12T12:06:45;101626.50;;;26.41;51.71
66398;BME280;54877;51.504;3.894;2023-08-12T12:09:11;101628.16;;;26.60;52.38
66398;BME280;54877;51.504;3.894;2023-08-12T12:11:38;101617.94;;;26.54;51.78
66398;BME280;54877;51.504;3.894;2023-08-12T12:14:04;101618.63;;;26.56;52.05
66398;BME280;54877;51.504;3.894;2023-08-12T12:16:37;101614.28;;;26.71;52.55
66398;BME280;54877;51.504;3.894;2023-08-12T12:19:13;101621.13;;;26.49;51.38
66398;BME280;54877;51.504;3.894;2023-08-12T12:21:41;101623.56;;;26.60;51.63
66398;BME280;54877;51.504;3.894;2023-08-12T12:24:09;101625.19;;;26.45;52.25
66398;BME280;54877;51.504;3.894;2023-08-12T12:26:35;101637.47;;;26.57;52.72
66398;BME280;54877;51.504;3.894;2023-08-12T12:29:01;101627.75;;;26.47;52.75
66398;BME280;54877;51.504;3.894;2023-08-12T12:31:28;101637.63;;;26.30;52.85
66398;BME280;54877;51.504;3.894;2023-08-12T12:33:54;101638.19;;;26.34;52.70
66398;BME280;54877;51.504;3.894;2023-08-12T12:36:19;101636.03;;;26.19;53.20
66398;BME280;54877;51.504;3.894;2023-08-12T12:38:44;101643.84;;;26.05;53.65
66398;BME280;54877;51.504;3.894;2023-08-12T12:41:10;101640.44;;;26.03;53.14
66398;BME280;54877;51.504;3.894;2023-08-12T12:43:35;101631.78;;;25.82;53.41
66398;BME280;54877;51.504;3.894;2023-08-12T12:46:00;101646.09;;;25.74;53.55
66398;BME280;54877;51.504;3.894;2023-08-12T12:48:26;101637.13;;;25.74;53.35
66398;BME280;54877;51.504;3.894;2023-08-12T12:50:51;101642.31;;;25.85;53.32
66398;BME280;54877;51.504;3.894;2023-08-12T12:53:16;101645.13;;;25.93;53.46
66398;BME280;54877;51.504;3.894;2023-08-12T12:55:42;101639.22;;;26.15;53.35
66398;BME280;54877;51.504;3.894;2023-08-12T12:58:07;101642.50;;;26.26;53.05
66398;BME280;54877;51.504;3.894;2023-08-12T13:00:34;101645.63;;;26.32;52.71
66398;BME280;54877;51.504;3.894;2023-08-12T13:02:59;101649.31;;;26.48;51.85
66398;BME280;54877;51.504;3.894;2023-08-12T13:05:25;101647.56;;;26.39;52.36